createdAt,value
2017-12-17T00:00:56.525Z,16.70
2017-12-17T00:03:23.727Z,16.80
2017-12-17T00:05:51.657Z,17.10
2017-12-17T00:08:18.823Z,17.10
2017-12-17T00:10:46.026Z,17.10
2017-12-17T00:13:13.186Z,17.20
2017-12-17T00:15:40.353Z,17.10
2017-12-17T00:18:07.525Z,17.00
2017-12-17T00:20:34.690Z,17.00
2017-12-17T00:23:01.869Z,17.10
2017-12-17T00:25:29.793Z,17.10
2017-12-17T00:27:57.845Z,17.10
2017-12-17T00:30:25.045Z,17.10
2017-12-17T00:32:52.986Z,16.90
2017-12-17T00:35:21.057Z,16.90
2017-12-17T00:37:48.228Z,17.00
2017-12-17T00:40:16.401Z,17.00
2017-12-17T00:42:43.568Z,17.00
2017-12-17T00:45:11.522Z,16.90
2017-12-17T00:47:38.722Z,16.90
2017-12-17T00:50:05.993Z,16.90
2017-12-17T00:52:34.169Z,16.90
2017-12-17T00:55:02.241Z,16.90
2017-12-17T00:57:30.266Z,16.90
2017-12-17T00:59:59.221Z,16.90
2017-12-17T01:02:26.393Z,16.90
2017-12-17T01:04:54.385Z,16.80
2017-12-17T01:07:22.433Z,16.90
2017-12-17T01:09:50.498Z,16.90
2017-12-17T01:12:17.657Z,16.90
2017-12-17T01:14:44.865Z,16.90
2017-12-17T01:17:12.022Z,16.90
2017-12-17T01:19:39.974Z,16.80
2017-12-17T01:22:07.252Z,16.80
2017-12-17T01:24:35.429Z,16.90
2017-12-17T01:27:02.602Z,16.90
2017-12-17T01:29:30.570Z,16.90
2017-12-17T01:31:58.573Z,16.80
2017-12-17T01:34:26.505Z,16.80
2017-12-17T01:36:54.481Z,16.80
2017-12-17T01:39:21.649Z,16.80
2017-12-17T01:41:48.856Z,16.90
2017-12-17T01:44:16.026Z,16.90
2017-12-17T01:46:44.073Z,16.80
2017-12-17T01:49:11.234Z,16.70
2017-12-17T01:51:38.401Z,16.80
2017-12-17T01:54:05.602Z,16.80
2017-12-17T01:56:33.609Z,16.80
2017-12-17T01:59:00.782Z,16.80
2017-12-17T02:01:28.768Z,16.80
2017-12-17T02:03:55.934Z,16.70
2017-12-17T02:06:24.687Z,16.70
2017-12-17T02:08:51.891Z,16.70
2017-12-17T02:11:19.833Z,16.80
2017-12-17T02:13:46.997Z,16.90
2017-12-17T02:16:14.930Z,17.10
2017-12-17T02:18:42.128Z,17.10
2017-12-17T02:21:10.826Z,17.10
2017-12-17T02:23:38.021Z,17.10
2017-12-17T02:26:05.186Z,17.00
2017-12-17T02:28:33.172Z,17.00
2017-12-17T02:31:01.117Z,17.00
2017-12-17T02:33:28.281Z,17.00
2017-12-17T02:35:55.450Z,17.00
2017-12-17T02:38:23.381Z,17.00
2017-12-17T02:40:51.486Z,17.00
2017-12-17T02:43:19.421Z,16.90
2017-12-17T02:45:46.629Z,16.90
2017-12-17T02:48:13.798Z,17.00
2017-12-17T02:50:41.295Z,17.00
2017-12-17T02:53:08.458Z,17.00
2017-12-17T02:55:36.515Z,17.00
2017-12-17T02:58:04.584Z,16.90
2017-12-17T03:00:31.751Z,16.80
2017-12-17T03:02:58.914Z,16.90
2017-12-17T03:05:26.083Z,16.90
2017-12-17T03:07:54.026Z,16.90
2017-12-17T03:10:21.189Z,16.90
2017-12-17T03:12:49.214Z,16.80
2017-12-17T03:15:16.382Z,16.80
2017-12-17T03:17:43.545Z,16.80
2017-12-17T03:20:11.559Z,16.90
2017-12-17T03:22:38.721Z,16.90
2017-12-17T03:25:05.994Z,16.90
2017-12-17T03:27:33.161Z,16.80
2017-12-17T03:30:00.334Z,16.80
2017-12-17T03:32:27.503Z,16.80
2017-12-17T03:34:55.432Z,16.90
2017-12-17T03:37:22.603Z,16.80
2017-12-17T03:39:50.553Z,16.90
2017-12-17T03:42:17.722Z,16.80
2017-12-17T03:44:44.890Z,16.80
2017-12-17T03:47:12.825Z,16.80
2017-12-17T03:49:40.926Z,16.80
2017-12-17T03:52:08.089Z,16.90
2017-12-17T03:54:36.017Z,16.80
2017-12-17T03:57:04.176Z,16.80
2017-12-17T04:02:04.874Z,16.80
2017-12-17T04:04:32.034Z,16.80
2017-12-17T04:06:59.970Z,16.90
2017-12-17T04:09:27.183Z,16.80
2017-12-17T04:11:54.357Z,16.80
2017-12-17T04:14:22.457Z,16.80
2017-12-17T04:16:49.623Z,16.80
2017-12-17T04:19:17.647Z,16.90
2017-12-17T04:21:45.587Z,16.90
2017-12-17T04:24:13.618Z,17.10
2017-12-17T04:26:40.777Z,17.10
2017-12-17T04:29:07.942Z,17.10
2017-12-17T04:31:35.905Z,17.10
2017-12-17T04:34:03.074Z,17.00
2017-12-17T04:36:31.829Z,17.00
2017-12-17T04:38:58.993Z,17.00
2017-12-17T04:41:27.058Z,17.10
2017-12-17T04:43:54.220Z,17.10
2017-12-17T04:46:22.213Z,17.10
2017-12-17T04:48:51.068Z,16.90
2017-12-17T04:51:19.163Z,16.90
2017-12-17T04:53:48.037Z,16.90
2017-12-17T04:56:15.197Z,16.90
2017-12-17T04:58:43.148Z,17.00
2017-12-17T05:01:11.242Z,17.00
2017-12-17T05:03:39.313Z,17.00
2017-12-17T05:06:08.160Z,16.80
2017-12-17T05:08:36.145Z,16.80
2017-12-17T05:11:03.322Z,16.90
2017-12-17T05:13:31.464Z,16.90
2017-12-17T05:15:58.626Z,16.90
2017-12-17T05:18:26.769Z,16.90
2017-12-17T05:20:53.932Z,16.80
2017-12-17T05:23:21.129Z,16.70
2017-12-17T05:25:48.295Z,16.80
2017-12-17T05:28:16.260Z,16.80
2017-12-17T05:30:44.309Z,16.80
2017-12-17T05:33:11.474Z,16.80
2017-12-17T05:35:38.681Z,16.80
2017-12-17T05:38:05.884Z,16.70
2017-12-17T05:40:33.845Z,16.80
2017-12-17T05:43:01.922Z,16.80
2017-12-17T05:45:30.384Z,16.80
2017-12-17T05:47:57.546Z,16.80
2017-12-17T05:50:25.272Z,16.70
2017-12-17T05:52:52.539Z,16.70
2017-12-17T05:55:20.607Z,16.70
2017-12-17T05:57:47.867Z,16.80
2017-12-17T06:00:15.846Z,16.80
2017-12-17T06:02:43.926Z,16.80
2017-12-17T06:05:11.090Z,16.70
2017-12-17T06:07:39.171Z,16.60
2017-12-17T06:10:06.399Z,16.60
2017-12-17T06:12:34.045Z,16.60
2017-12-17T06:15:02.106Z,16.80
2017-12-17T06:17:29.270Z,16.90
2017-12-17T06:19:56.466Z,17.00
2017-12-17T06:22:25.414Z,17.00
2017-12-17T06:24:52.875Z,17.00
2017-12-17T06:27:20.123Z,16.90
2017-12-17T06:29:47.294Z,16.90
2017-12-17T06:32:14.463Z,17.00
2017-12-17T06:34:41.626Z,16.90
2017-12-17T06:37:10.346Z,16.90
2017-12-17T06:39:38.283Z,16.80
2017-12-17T06:42:05.449Z,16.80
2017-12-17T06:44:33.376Z,16.80
2017-12-17T06:47:00.546Z,16.80
2017-12-17T06:49:27.774Z,16.80
2017-12-17T06:51:55.754Z,16.90
2017-12-17T06:54:22.919Z,16.90
2017-12-17T06:56:50.087Z,16.70
2017-12-17T06:59:17.255Z,16.70
2017-12-17T07:01:45.186Z,16.80
2017-12-17T07:04:12.351Z,16.80
2017-12-17T07:06:39.522Z,16.80
2017-12-17T07:09:07.506Z,16.60
2017-12-17T07:11:35.434Z,16.50
2017-12-17T07:14:02.597Z,16.50
2017-12-17T07:16:30.538Z,16.10
2017-12-17T07:18:57.705Z,16.30
2017-12-17T07:21:24.865Z,16.40
2017-12-17T07:23:52.029Z,16.50
2017-12-17T07:26:19.248Z,16.60
2017-12-17T07:28:46.410Z,16.60
2017-12-17T07:31:13.574Z,16.70
2017-12-17T07:33:40.776Z,16.80
2017-12-17T07:36:07.942Z,16.80
2017-12-17T07:38:35.922Z,16.70
2017-12-17T07:41:03.884Z,16.80
2017-12-17T07:43:31.048Z,16.80
2017-12-17T07:46:03.546Z,16.80
2017-12-17T07:48:30.808Z,16.80
2017-12-17T07:50:58.788Z,16.60
2017-12-17T07:53:26.242Z,16.60
2017-12-17T07:55:53.512Z,16.70
2017-12-17T07:58:21.629Z,16.70
2017-12-17T08:00:48.890Z,16.70
2017-12-17T08:03:31.281Z,16.60
2017-12-17T08:05:58.481Z,16.60
2017-12-17T08:08:29.356Z,16.60
2017-12-17T08:10:57.368Z,16.70
2017-12-17T08:16:32.894Z,16.80
2017-12-17T08:19:01.825Z,17.00
2017-12-17T08:21:29.015Z,17.00
2017-12-17T08:23:57.129Z,16.50
2017-12-17T08:26:25.231Z,16.00
2017-12-17T08:28:52.559Z,15.60
2017-12-17T08:31:20.756Z,15.50
2017-12-17T08:33:48.754Z,15.40
2017-12-17T08:36:15.962Z,15.30
2017-12-17T08:38:44.153Z,15.20
2017-12-17T08:41:11.318Z,15.10
2017-12-17T08:43:38.604Z,15.30
2017-12-17T08:46:05.819Z,15.70
2017-12-17T08:48:32.987Z,16.00
2017-12-17T08:51:00.920Z,16.50
2017-12-17T08:53:29.031Z,16.50
2017-12-17T08:55:56.963Z,16.70
2017-12-17T08:58:24.163Z,16.70
2017-12-17T10:08:45.877Z,15.40
2017-12-17T10:11:13.040Z,15.40
2017-12-17T10:13:40.208Z,15.70
2017-12-17T10:16:07.377Z,16.10
2017-12-17T10:18:35.306Z,16.70
2017-12-17T10:21:03.380Z,16.70
2017-12-17T10:23:32.226Z,17.00
2017-12-17T10:25:59.391Z,16.90
2017-12-17T10:28:26.562Z,16.90
2017-12-17T10:30:54.669Z,16.10
2017-12-17T10:33:22.607Z,16.00
2017-12-17T10:35:49.772Z,15.90
2017-12-17T10:38:16.937Z,16.30
2017-12-17T10:40:44.106Z,16.50
2017-12-17T10:43:12.046Z,16.70
2017-12-17T10:45:39.218Z,16.70
2017-12-17T10:48:07.205Z,16.90
2017-12-17T10:50:34.383Z,16.90
2017-12-17T10:53:01.570Z,16.90
2017-12-17T10:55:28.738Z,16.90
2017-12-17T10:57:57.245Z,16.90
2017-12-17T11:00:25.210Z,17.00
2017-12-17T11:02:53.650Z,16.90
2017-12-17T11:05:20.814Z,16.90
2017-12-17T11:07:47.982Z,16.90
2017-12-17T11:10:16.706Z,16.90
2017-12-17T11:12:43.874Z,16.90
2017-12-17T11:15:11.043Z,16.90
2017-12-17T11:17:38.207Z,16.90
2017-12-17T11:20:05.427Z,16.90
2017-12-17T11:22:32.601Z,16.80
2017-12-17T11:24:59.761Z,16.80
2017-12-17T11:27:26.925Z,16.80
2017-12-17T11:29:55.791Z,16.80
2017-12-17T11:32:22.954Z,16.80
2017-12-17T11:34:50.114Z,16.70
2017-12-17T11:37:17.322Z,16.70
2017-12-17T11:39:46.861Z,16.80
2017-12-17T11:42:14.030Z,16.80
2017-12-17T11:44:41.194Z,16.80
2017-12-17T11:47:09.178Z,16.80
2017-12-17T11:49:36.352Z,16.70
2017-12-17T11:52:03.510Z,16.70
2017-12-17T11:54:30.674Z,16.80
2017-12-17T11:56:58.705Z,16.80
2017-12-17T11:59:25.874Z,16.80
2017-12-17T12:01:53.054Z,16.70
2017-12-17T12:04:22.070Z,16.70
2017-12-17T12:06:49.229Z,16.70
2017-12-17T12:09:16.390Z,16.80
2017-12-17T12:11:43.559Z,16.90
2017-12-17T12:14:11.500Z,17.00
2017-12-17T12:16:40.469Z,17.00
2017-12-17T12:19:07.697Z,17.00
2017-12-17T12:21:35.630Z,16.90
2017-12-17T12:24:03.722Z,16.90
2017-12-17T12:26:31.654Z,17.00
2017-12-17T12:28:58.829Z,17.00
2017-12-17T12:31:25.989Z,17.00
2017-12-17T12:33:53.238Z,16.90
2017-12-17T12:36:22.158Z,16.90
2017-12-17T12:38:49.559Z,16.90
2017-12-17T12:41:16.716Z,16.90
2017-12-17T12:43:43.897Z,16.90
2017-12-17T12:46:11.118Z,16.90
2017-12-17T12:48:38.282Z,16.80
2017-12-17T12:51:05.473Z,16.80
2017-12-17T12:53:33.406Z,16.90
2017-12-17T12:56:00.570Z,16.90
2017-12-17T12:58:27.742Z,16.90
2017-12-17T13:00:56.489Z,16.90
2017-12-17T13:03:24.753Z,16.90
2017-12-17T13:05:52.106Z,16.90
2017-12-17T13:08:19.355Z,16.90
2017-12-17T13:10:46.530Z,17.00
2017-12-17T13:13:13.689Z,17.00
2017-12-17T13:15:40.875Z,16.90
2017-12-17T13:18:08.809Z,16.90
2017-12-17T13:20:35.972Z,16.90
2017-12-17T13:23:03.153Z,16.90
2017-12-17T13:28:04.661Z,16.80
2017-12-17T13:30:31.827Z,16.80
2017-12-17T13:32:59.046Z,16.80
2017-12-17T13:35:26.249Z,16.90
2017-12-17T13:37:53.409Z,17.00
2017-12-17T13:40:21.345Z,17.10
2017-12-17T13:42:48.978Z,17.10
2017-12-17T13:45:16.306Z,17.10
2017-12-17T13:47:44.289Z,17.10
2017-12-17T13:50:11.462Z,17.00
2017-12-17T13:52:38.627Z,17.00
2017-12-17T13:55:05.797Z,17.00
2017-12-17T13:57:32.962Z,17.00
2017-12-17T14:00:00.122Z,16.90
2017-12-17T14:02:28.107Z,17.00
2017-12-17T14:04:56.038Z,17.00
2017-12-17T14:07:23.210Z,17.00
2017-12-17T14:09:51.317Z,17.00
2017-12-17T14:12:18.489Z,17.00
2017-12-17T14:14:45.658Z,16.90
2017-12-17T14:17:12.815Z,16.80
2017-12-17T14:19:39.984Z,16.80
2017-12-17T14:22:07.409Z,16.90
2017-12-17T14:24:35.390Z,16.90
2017-12-17T14:27:02.730Z,16.90
2017-12-17T14:29:30.048Z,16.90
2017-12-17T14:31:58.113Z,16.90
2017-12-17T14:34:25.327Z,16.90
2017-12-17T14:36:53.376Z,16.90
2017-12-17T14:39:21.006Z,17.00
2017-12-17T14:41:48.937Z,16.80
2017-12-17T14:44:16.144Z,16.80
2017-12-17T14:46:43.309Z,16.90
2017-12-17T14:49:10.508Z,16.90
2017-12-17T14:51:38.620Z,16.90
2017-12-17T14:54:05.818Z,16.90
2017-12-17T14:56:34.314Z,16.80
2017-12-17T14:59:01.513Z,16.80
2017-12-17T15:01:28.677Z,16.90
2017-12-17T15:03:56.786Z,16.90
2017-12-17T15:06:24.765Z,16.90
2017-12-17T15:08:53.172Z,16.80
2017-12-17T15:11:21.137Z,16.80
2017-12-17T15:13:49.073Z,16.80
2017-12-17T15:16:16.266Z,16.70
2017-12-17T15:18:44.197Z,16.70
2017-12-17T15:21:11.443Z,16.70
2017-12-17T15:23:38.614Z,16.70
2017-12-17T15:26:05.773Z,16.80
2017-12-17T15:28:32.938Z,16.90
2017-12-17T15:31:00.913Z,17.00
2017-12-17T15:33:28.859Z,17.00
2017-12-17T15:35:56.018Z,17.00
2017-12-17T15:38:23.219Z,17.00
2017-12-17T15:40:50.382Z,17.00
2017-12-17T15:43:17.552Z,17.00
2017-12-17T15:45:45.476Z,17.00
2017-12-17T15:48:12.676Z,17.00
2017-12-17T15:50:40.660Z,17.00
2017-12-17T15:53:07.868Z,16.90
2017-12-17T15:55:35.941Z,16.90
2017-12-17T15:58:03.186Z,16.90
2017-12-17T16:00:31.246Z,16.90
2017-12-17T16:02:58.453Z,16.90
2017-12-17T16:05:25.622Z,16.90
2017-12-17T16:07:53.593Z,16.70
2017-12-17T16:10:21.560Z,16.70
2017-12-17T16:12:49.501Z,16.80
2017-12-17T16:15:16.701Z,16.70
2017-12-17T16:17:44.637Z,16.70
2017-12-17T16:20:11.798Z,16.70
2017-12-17T16:22:38.966Z,16.70
2017-12-17T16:25:06.899Z,16.70
2017-12-17T16:27:34.071Z,16.70
2017-12-17T16:30:01.277Z,16.80
2017-12-17T16:32:28.442Z,16.80
2017-12-17T16:34:55.614Z,16.70
2017-12-17T16:37:22.789Z,16.60
2017-12-17T16:39:49.961Z,16.60
2017-12-17T16:42:17.953Z,16.70
2017-12-17T16:44:45.100Z,16.70
2017-12-17T16:47:12.264Z,16.70
2017-12-17T16:49:39.487Z,16.60
2017-12-17T16:52:07.421Z,16.70
2017-12-17T16:54:42.063Z,16.70
2017-12-17T16:57:10.019Z,16.80
2017-12-17T16:59:37.269Z,16.80
2017-12-17T17:02:05.404Z,16.70
2017-12-17T17:04:36.368Z,16.70
2017-12-17T17:07:04.370Z,16.60
2017-12-17T17:09:33.086Z,16.80
2017-12-17T17:12:00.296Z,16.80
2017-12-17T17:14:27.466Z,17.00
2017-12-17T17:16:55.412Z,17.00
2017-12-17T17:19:22.684Z,17.10
2017-12-17T17:21:49.850Z,17.10
2017-12-17T17:24:17.820Z,16.90
2017-12-17T17:26:45.754Z,16.90
2017-12-17T17:29:12.927Z,16.90
2017-12-17T17:31:40.090Z,16.90
2017-12-17T17:34:08.069Z,16.90
2017-12-17T17:36:35.994Z,16.80
2017-12-17T17:39:03.917Z,16.90
2017-12-17T17:41:32.657Z,16.90
2017-12-17T17:44:00.633Z,16.90
2017-12-17T17:46:27.837Z,16.90
2017-12-17T17:48:56.105Z,16.90
2017-12-17T17:51:23.373Z,16.90
2017-12-17T17:53:51.437Z,16.80
2017-12-17T17:56:18.629Z,16.80
2017-12-17T17:58:46.562Z,16.90
2017-12-17T18:01:13.771Z,16.90
2017-12-17T18:03:41.721Z,16.90
2017-12-17T18:06:09.860Z,16.90
2017-12-17T18:08:37.028Z,16.80
2017-12-17T18:11:05.157Z,16.80
2017-12-17T18:13:33.085Z,16.90
2017-12-17T18:16:00.247Z,16.90
2017-12-17T18:18:27.410Z,16.90
2017-12-17T18:20:54.580Z,16.80
2017-12-17T18:23:22.566Z,16.80
2017-12-17T18:25:50.536Z,16.80
2017-12-17T18:28:18.510Z,16.90
2017-12-17T18:30:46.648Z,16.80
2017-12-17T18:33:13.849Z,16.80
2017-12-17T18:35:41.054Z,16.80
2017-12-17T18:38:08.267Z,16.70
2017-12-17T18:40:35.428Z,16.70
2017-12-17T18:43:02.593Z,16.70
2017-12-17T18:45:29.762Z,16.80
2017-12-17T18:47:57.830Z,16.70
2017-12-17T18:50:25.915Z,16.60
2017-12-17T18:52:53.079Z,16.60
2017-12-17T18:55:21.054Z,16.80
2017-12-17T18:57:48.982Z,16.70
2017-12-17T19:00:16.538Z,16.70
2017-12-17T19:02:43.702Z,16.70
2017-12-17T19:05:10.903Z,16.70
2017-12-17T19:07:38.082Z,16.90
2017-12-17T19:10:05.296Z,17.00
2017-12-17T19:12:33.231Z,17.10
2017-12-17T19:15:01.341Z,17.10
2017-12-17T19:17:29.421Z,17.10
2017-12-17T19:19:56.590Z,17.00
2017-12-17T19:22:23.758Z,17.00
2017-12-17T19:24:50.929Z,17.00
2017-12-17T19:27:18.132Z,17.00
2017-12-17T19:29:45.302Z,17.00
2017-12-17T19:32:12.509Z,17.00
2017-12-17T19:34:40.698Z,17.00
2017-12-17T19:37:09.743Z,17.00
2017-12-17T19:39:36.935Z,17.00
2017-12-17T19:42:04.873Z,16.90
2017-12-17T19:44:33.549Z,16.90
2017-12-17T19:47:00.769Z,16.80
2017-12-17T19:49:27.937Z,16.90
2017-12-17T19:51:55.112Z,16.90
2017-12-17T19:54:22.281Z,16.90
2017-12-17T19:56:50.264Z,16.90
2017-12-17T19:59:18.203Z,16.80
2017-12-17T20:01:45.377Z,16.80
2017-12-17T20:04:13.330Z,16.80
2017-12-17T20:06:40.498Z,16.80
2017-12-17T20:09:07.661Z,16.80
2017-12-17T20:11:35.597Z,16.80
2017-12-17T20:14:03.607Z,16.70
2017-12-17T20:16:31.542Z,16.80
2017-12-17T20:18:58.714Z,16.70
2017-12-17T20:21:26.689Z,16.90
2017-12-17T20:23:54.628Z,17.00
2017-12-17T20:26:22.720Z,16.90
2017-12-17T20:28:49.894Z,17.00
2017-12-17T20:31:17.886Z,17.20
2017-12-17T20:33:45.053Z,17.20
2017-12-17T20:36:12.217Z,17.20
2017-12-17T20:38:40.201Z,17.20
2017-12-17T20:41:08.333Z,17.30
2017-12-17T20:43:35.503Z,17.30
2017-12-17T20:46:02.669Z,17.30
2017-12-17T20:48:29.846Z,17.20
2017-12-17T20:50:57.023Z,17.00
2017-12-17T20:53:24.989Z,17.00
2017-12-17T20:55:52.957Z,17.00
2017-12-17T20:58:20.911Z,16.90
2017-12-17T21:00:48.124Z,16.90
2017-12-17T21:03:15.340Z,16.90
2017-12-17T21:05:43.279Z,17.00
2017-12-17T21:08:10.444Z,16.90
2017-12-17T21:10:38.515Z,16.90
2017-12-17T21:13:05.689Z,16.90
2017-12-17T21:15:33.617Z,16.80
2017-12-17T21:18:00.831Z,16.70
2017-12-17T21:20:27.995Z,16.80
2017-12-17T21:22:55.222Z,16.80
2017-12-17T21:25:22.399Z,16.80
2017-12-17T21:27:49.573Z,16.70
2017-12-17T21:30:16.879Z,16.70
2017-12-17T21:32:44.082Z,16.80
2017-12-17T21:35:11.293Z,16.80
2017-12-17T21:37:38.501Z,16.80
2017-12-17T21:40:06.137Z,16.70
2017-12-17T21:42:33.346Z,16.60
2017-12-17T21:45:01.493Z,16.70
2017-12-17T21:47:28.663Z,16.80
2017-12-17T21:49:55.907Z,16.90
2017-12-17T21:52:23.107Z,17.00
2017-12-17T21:54:51.612Z,17.10
2017-12-17T21:57:19.800Z,17.10
2017-12-17T21:59:46.963Z,17.00
2017-12-17T22:02:14.167Z,17.00
2017-12-17T22:04:41.337Z,17.00
2017-12-17T22:07:09.156Z,17.00
2017-12-17T22:09:36.459Z,17.00
2017-12-17T22:12:04.046Z,17.00
2017-12-17T22:14:31.745Z,16.90
2017-12-17T22:16:59.430Z,16.90
2017-12-17T22:19:27.194Z,16.90
2017-12-17T22:21:55.381Z,17.00
2017-12-17T22:24:23.408Z,16.90
2017-12-17T22:26:50.966Z,16.90
2017-12-17T22:29:18.381Z,16.80
2017-12-17T22:31:45.575Z,16.80
2017-12-17T22:34:13.023Z,16.80
2017-12-17T22:36:42.704Z,16.90
2017-12-17T22:39:11.229Z,16.80
2017-12-17T22:41:39.171Z,16.90
2017-12-17T22:44:07.707Z,16.80
2017-12-17T22:46:36.182Z,16.80
2017-12-17T22:49:04.224Z,16.80
2017-12-17T22:51:31.429Z,16.80
2017-12-17T22:53:58.596Z,16.80
2017-12-17T22:56:25.801Z,16.80
2017-12-17T22:58:53.749Z,16.70
2017-12-17T23:01:21.376Z,16.60
2017-12-17T23:03:48.721Z,16.70
2017-12-17T23:06:15.918Z,16.70
2017-12-17T23:08:43.089Z,16.70
2017-12-17T23:11:11.084Z,16.60
2017-12-17T23:13:39.082Z,16.60
2017-12-17T23:16:06.262Z,16.60
2017-12-17T23:18:33.458Z,16.60
2017-12-17T23:21:00.658Z,16.70
2017-12-17T23:23:27.864Z,16.70
2017-12-17T23:25:55.026Z,16.70
2017-12-17T23:28:22.297Z,16.60
2017-12-17T23:30:49.462Z,16.60
2017-12-17T23:33:16.676Z,16.60
2017-12-17T23:35:44.620Z,16.60
2017-12-17T23:38:13.456Z,16.60
2017-12-17T23:40:40.621Z,16.60
2017-12-17T23:43:08.641Z,16.50
2017-12-17T23:45:37.381Z,16.50
2017-12-17T23:48:05.451Z,16.50
2017-12-17T23:50:32.621Z,16.60
2017-12-17T23:53:00.702Z,16.70
2017-12-17T23:55:28.798Z,16.80
2017-12-17T23:57:56.729Z,16.90
